sensor_id;sensor_type;location;lat;lon;timestamp;temperature;humidity
32594;DHT22;19018;49.046;9.140;2022-07-01T00:00:31;20.00;51.60
32594;DHT22;19018;49.046;9.140;2022-07-01T00:02:57;20.10;51.70
32594;DHT22;19018;49.046;9.140;2022-07-01T00:05:22;20.00;51.70
32594;DHT22;19018;49.046;9.140;2022-07-01T00:07:48;19.90;51.70
32594;DHT22;19018;49.046;9.140;2022-07-01T00:12:40;19.80;51.70
32594;DHT22;19018;49.046;9.140;2022-07-01T00:15:06;19.80;51.80
32594;DHT22;19018;49.046;9.140;2022-07-01T00:17:31;19.70;51.80
32594;DHT22;19018;49.046;9.140;2022-07-01T00:19:57;19.70;51.90
32594;DHT22;19018;49.046;9.140;2022-07-01T00:22:22;19.60;51.80
32594;DHT22;19018;49.046;9.140;2022-07-01T00:24:48;19.60;51.90
32594;DHT22;19018;49.046;9.140;2022-07-01T00:27:14;19.50;51.90
32594;DHT22;19018;49.046;9.140;2022-07-01T00:32:06;19.40;51.90
32594;DHT22;19018;49.046;9.140;2022-07-01T00:34:32;19.40;51.90
32594;DHT22;19018;49.046;9.140;2022-07-01T00:36:57;19.40;52.00
32594;DHT22;19018;49.046;9.140;2022-07-01T00:39:24;19.30;51.90
32594;DHT22;19018;49.046;9.140;2022-07-01T00:41:50;19.30;51.90
32594;DHT22;19018;49.046;9.140;2022-07-01T00:44:16;19.30;52.00
32594;DHT22;19018;49.046;9.140;2022-07-01T00:46:42;19.20;52.00
32594;DHT22;19018;49.046;9.140;2022-07-01T00:49:08;19.20;52.00
32594;DHT22;19018;49.046;9.140;2022-07-01T00:51:34;19.10;52.00
32594;DHT22;19018;49.046;9.140;2022-07-01T00:56:26;19.10;52.10
32594;DHT22;19018;49.046;9.140;2022-07-01T00:58:52;19.00;52.10
32594;DHT22;19018;49.046;9.140;2022-07-01T01:01:18;19.00;52.10
32594;DHT22;19018;49.046;9.140;2022-07-01T01:03:44;18.90;52.10
32594;DHT22;19018;49.046;9.140;2022-07-01T01:06:10;18.90;52.20
32594;DHT22;19018;49.046;9.140;2022-07-01T01:08:36;18.90;52.20
32594;DHT22;19018;49.046;9.140;2022-07-01T01:11:03;18.80;52.20
32594;DHT22;19018;49.046;9.140;2022-07-01T01:13:28;18.80;52.20
32594;DHT22;19018;49.046;9.140;2022-07-01T01:15:54;18.80;52.30
32594;DHT22;19018;49.046;9.140;2022-07-01T01:18:20;18.70;52.30
32594;DHT22;19018;49.046;9.140;2022-07-01T01:20:45;18.70;52.30
32594;DHT22;19018;49.046;9.140;2022-07-01T01:25:37;18.70;52.40
32594;DHT22;19018;49.046;9.140;2022-07-01T01:28:02;18.70;52.40
32594;DHT22;19018;49.046;9.140;2022-07-01T01:30:28;18.60;52.40
32594;DHT22;19018;49.046;9.140;2022-07-01T01:32:55;18.60;52.40
32594;DHT22;19018;49.046;9.140;2022-07-01T01:35:20;18.50;52.40
32594;DHT22;19018;49.046;9.140;2022-07-01T01:37:46;18.50;52.40
32594;DHT22;19018;49.046;9.140;2022-07-01T01:40:12;18.50;52.40
32594;DHT22;19018;49.046;9.140;2022-07-01T01:42:41;18.50;52.50
32594;DHT22;19018;49.046;9.140;2022-07-01T01:45:07;18.50;52.50
32594;DHT22;19018;49.046;9.140;2022-07-01T01:47:32;18.50;52.60
32594;DHT22;19018;49.046;9.140;2022-07-01T01:49:58;18.40;52.50
32594;DHT22;19018;49.046;9.140;2022-07-01T01:52:24;18.40;52.50
32594;DHT22;19018;49.046;9.140;2022-07-01T01:54:49;18.40;52.60
32594;DHT22;19018;49.046;9.140;2022-07-01T01:57:15;18.40;52.60
32594;DHT22;19018;49.046;9.140;2022-07-01T02:02:06;18.30;52.60
32594;DHT22;19018;49.046;9.140;2022-07-01T02:04:32;18.30;52.60
32594;DHT22;19018;49.046;9.140;2022-07-01T02:06:58;18.30;52.60
32594;DHT22;19018;49.046;9.140;2022-07-01T02:09:25;18.30;52.60
32594;DHT22;19018;49.046;9.140;2022-07-01T02:11:50;18.20;52.60
32594;DHT22;19018;49.046;9.140;2022-07-01T02:14:16;18.20;52.60
32594;DHT22;19018;49.046;9.140;2022-07-01T02:16:42;18.20;52.60
32594;DHT22;19018;49.046;9.140;2022-07-01T02:21:33;18.10;52.60
32594;DHT22;19018;49.046;9.140;2022-07-01T02:23:59;18.10;52.70
32594;DHT22;19018;49.046;9.140;2022-07-01T02:26:24;18.10;52.70
32594;DHT22;19018;49.046;9.140;2022-07-01T02:28:50;18.10;52.70
32594;DHT22;19018;49.046;9.140;2022-07-01T02:31:15;18.00;52.70
32594;DHT22;19018;49.046;9.140;2022-07-01T02:33:41;18.00;52.70
32594;DHT22;19018;49.046;9.140;2022-07-01T02:36:07;18.00;52.70
32594;DHT22;19018;49.046;9.140;2022-07-01T02:38:32;17.90;52.70
32594;DHT22;19018;49.046;9.140;2022-07-01T02:43:24;17.90;52.70
32594;DHT22;19018;49.046;9.140;2022-07-01T02:45:49;17.90;52.80
32594;DHT22;19018;49.046;9.140;2022-07-01T02:48:15;17.90;52.70
32594;DHT22;19018;49.046;9.140;2022-07-01T02:50:40;17.80;52.70
32594;DHT22;19018;49.046;9.140;2022-07-01T02:55:32;17.80;52.80
32594;DHT22;19018;49.046;9.140;2022-07-01T02:57:57;17.80;52.80
32594;DHT22;19018;49.046;9.140;2022-07-01T03:02:49;17.80;52.80
32594;DHT22;19018;49.046;9.140;2022-07-01T03:05:15;17.70;52.80
32594;DHT22;19018;49.046;9.140;2022-07-01T03:07:41;17.70;52.80
32594;DHT22;19018;49.046;9.140;2022-07-01T03:10:07;17.70;52.80
32594;DHT22;19018;49.046;9.140;2022-07-01T03:12:33;17.70;52.90
32594;DHT22;19018;49.046;9.140;2022-07-01T03:15:04;17.60;52.90
32594;DHT22;19018;49.046;9.140;2022-07-01T03:17:31;17.60;52.90
32594;DHT22;19018;49.046;9.140;2022-07-01T03:19:57;17.60;53.00
32594;DHT22;19018;49.046;9.140;2022-07-01T03:22:24;17.60;53.10
32594;DHT22;19018;49.046;9.140;2022-07-01T03:27:16;17.50;53.00
32594;DHT22;19018;49.046;9.140;2022-07-01T03:29:42;17.50;53.00
32594;DHT22;19018;49.046;9.140;2022-07-01T03:32:08;17.50;53.00
32594;DHT22;19018;49.046;9.140;2022-07-01T03:34:37;17.50;53.10
32594;DHT22;19018;49.046;9.140;2022-07-01T03:37:03;17.40;53.00
32594;DHT22;19018;49.046;9.140;2022-07-01T03:39:29;17.40;53.00
32594;DHT22;19018;49.046;9.140;2022-07-01T03:41:54;17.40;53.00
32594;DHT22;19018;49.046;9.140;2022-07-01T03:44:20;17.40;53.00
32594;DHT22;19018;49.046;9.140;2022-07-01T03:46:45;17.40;53.00
32594;DHT22;19018;49.046;9.140;2022-07-01T03:51:37;17.40;53.00
32594;DHT22;19018;49.046;9.140;2022-07-01T03:54:03;17.30;53.00
32594;DHT22;19018;49.046;9.140;2022-07-01T03:56:47;17.30;53.10
32594;DHT22;19018;49.046;9.140;2022-07-01T04:01:38;17.30;53.10
32594;DHT22;19018;49.046;9.140;2022-07-01T04:04:04;17.30;53.10
32594;DHT22;19018;49.046;9.140;2022-07-01T04:06:30;17.30;53.20
32594;DHT22;19018;49.046;9.140;2022-07-01T04:08:55;17.20;53.10
32594;DHT22;19018;49.046;9.140;2022-07-01T04:11:21;17.20;53.10
32594;DHT22;19018;49.046;9.140;2022-07-01T04:13:46;17.20;53.20
32594;DHT22;19018;49.046;9.140;2022-07-01T04:16:19;17.20;53.20
32594;DHT22;19018;49.046;9.140;2022-07-01T04:18:45;17.20;53.20
32594;DHT22;19018;49.046;9.140;2022-07-01T04:21:11;17.20;53.20
32594;DHT22;19018;49.046;9.140;2022-07-01T04:23:55;17.20;53.20
32594;DHT22;19018;49.046;9.140;2022-07-01T04:26:24;17.20;53.20
32594;DHT22;19018;49.046;9.140;2022-07-01T04:28:50;17.20;53.20
32594;DHT22;19018;49.046;9.140;2022-07-01T04:31:16;17.10;53.20
32594;DHT22;19018;49.046;9.140;2022-07-01T04:33:42;17.10;53.20
32594;DHT22;19018;49.046;9.140;2022-07-01T04:38:33;17.10;53.20
32594;DHT22;19018;49.046;9.140;2022-07-01T04:40:59;17.10;53.20
32594;DHT22;19018;49.046;9.140;2022-07-01T04:43:43;17.10;53.20
32594;DHT22;19018;49.046;9.140;2022-07-01T04:46:08;17.10;53.30
32594;DHT22;19018;49.046;9.140;2022-07-01T04:48:34;17.00;53.30
32594;DHT22;19018;49.046;9.140;2022-07-01T04:50:59;17.00;53.30
32594;DHT22;19018;49.046;9.140;2022-07-01T04:53:25;17.00;53.30
32594;DHT22;19018;49.046;9.140;2022-07-01T04:55:50;17.00;53.30
32594;DHT22;19018;49.046;9.140;2022-07-01T04:58:16;17.00;53.30
32594;DHT22;19018;49.046;9.140;2022-07-01T05:00:41;17.00;53.30
32594;DHT22;19018;49.046;9.140;2022-07-01T05:03:08;17.00;53.30
32594;DHT22;19018;49.046;9.140;2022-07-01T05:05:33;17.00;53.30
32594;DHT22;19018;49.046;9.140;2022-07-01T05:07:59;17.00;53.30
32594;DHT22;19018;49.046;9.140;2022-07-01T05:10:25;17.00;53.40
32594;DHT22;19018;49.046;9.140;2022-07-01T05:12:50;17.00;53.40
32594;DHT22;19018;49.046;9.140;2022-07-01T05:15:16;17.00;53.40
32594;DHT22;19018;49.046;9.140;2022-07-01T05:17:42;17.00;53.40
32594;DHT22;19018;49.046;9.140;2022-07-01T05:20:26;16.90;53.40
32594;DHT22;19018;49.046;9.140;2022-07-01T05:23:10;17.00;53.40
32594;DHT22;19018;49.046;9.140;2022-07-01T05:25:35;17.00;53.40
32594;DHT22;19018;49.046;9.140;2022-07-01T05:28:01;17.00;53.50
32594;DHT22;19018;49.046;9.140;2022-07-01T05:30:26;16.90;53.50
32594;DHT22;19018;49.046;9.140;2022-07-01T05:35:18;16.90;53.50
32594;DHT22;19018;49.046;9.140;2022-07-01T05:37:44;16.90;53.50
32594;DHT22;19018;49.046;9.140;2022-07-01T05:40:09;16.90;53.50
32594;DHT22;19018;49.046;9.140;2022-07-01T05:42:35;16.90;53.50
32594;DHT22;19018;49.046;9.140;2022-07-01T05:45:01;16.90;53.50
32594;DHT22;19018;49.046;9.140;2022-07-01T05:47:26;16.90;53.50
32594;DHT22;19018;49.046;9.140;2022-07-01T05:49:52;16.90;53.50
32594;DHT22;19018;49.046;9.140;2022-07-01T05:52:17;16.90;53.50
32594;DHT22;19018;49.046;9.140;2022-07-01T05:54:43;16.90;53.60
32594;DHT22;19018;49.046;9.140;2022-07-01T05:57:08;16.90;53.60
32594;DHT22;19018;49.046;9.140;2022-07-01T05:59:35;16.90;53.60
32594;DHT22;19018;49.046;9.140;2022-07-01T06:02:00;17.00;53.60
32594;DHT22;19018;49.046;9.140;2022-07-01T06:04:26;16.90;53.60
32594;DHT22;19018;49.046;9.140;2022-07-01T06:06:51;16.90;53.60
32594;DHT22;19018;49.046;9.140;2022-07-01T06:11:43;17.00;53.70
32594;DHT22;19018;49.046;9.140;2022-07-01T06:14:08;17.00;53.70
32594;DHT22;19018;49.046;9.140;2022-07-01T06:16:34;17.00;53.70
32594;DHT22;19018;49.046;9.140;2022-07-01T06:18:59;17.00;53.70
32594;DHT22;19018;49.046;9.140;2022-07-01T06:21:25;17.00;53.80
32594;DHT22;19018;49.046;9.140;2022-07-01T06:23:51;17.00;53.80
32594;DHT22;19018;49.046;9.140;2022-07-01T06:28:42;17.00;53.80
32594;DHT22;19018;49.046;9.140;2022-07-01T06:31:08;17.00;53.80
32594;DHT22;19018;49.046;9.140;2022-07-01T06:33:34;17.00;53.90
32594;DHT22;19018;49.046;9.140;2022-07-01T06:36:00;17.00;53.90
32594;DHT22;19018;49.046;9.140;2022-07-01T06:38:26;17.00;53.90
32594;DHT22;19018;49.046;9.140;2022-07-01T06:40:51;17.10;53.90
32594;DHT22;19018;49.046;9.140;2022-07-01T06:43:35;17.10;53.90
32594;DHT22;19018;49.046;9.140;2022-07-01T06:46:01;17.10;53.90
32594;DHT22;19018;49.046;9.140;2022-07-01T06:48:27;17.10;53.90
32594;DHT22;19018;49.046;9.140;2022-07-01T06:53:18;17.10;53.90
32594;DHT22;19018;49.046;9.140;2022-07-01T06:55:44;17.10;53.90
32594;DHT22;19018;49.046;9.140;2022-07-01T06:58:09;17.10;53.90
32594;DHT22;19018;49.046;9.140;2022-07-01T07:00:35;17.10;53.90
32594;DHT22;19018;49.046;9.140;2022-07-01T07:03:01;17.20;53.90
32594;DHT22;19018;49.046;9.140;2022-07-01T07:05:27;17.10;53.90
32594;DHT22;19018;49.046;9.140;2022-07-01T07:07:55;17.10;54.00
32594;DHT22;19018;49.046;9.140;2022-07-01T07:10:21;17.10;54.00
32594;DHT22;19018;49.046;9.140;2022-07-01T07:12:46;17.10;53.90
32594;DHT22;19018;49.046;9.140;2022-07-01T07:17:38;17.20;54.00
32594;DHT22;19018;49.046;9.140;2022-07-01T07:20:03;17.20;54.00
32594;DHT22;19018;49.046;9.140;2022-07-01T07:22:29;17.20;54.00
32594;DHT22;19018;49.046;9.140;2022-07-01T07:24:55;17.20;54.00
32594;DHT22;19018;49.046;9.140;2022-07-01T07:27:20;17.20;54.10
32594;DHT22;19018;49.046;9.140;2022-07-01T07:29:46;17.20;54.10
32594;DHT22;19018;49.046;9.140;2022-07-01T07:32:11;17.10;54.10
32594;DHT22;19018;49.046;9.140;2022-07-01T07:34:37;17.20;54.10
32594;DHT22;19018;49.046;9.140;2022-07-01T07:37:03;17.20;54.10
32594;DHT22;19018;49.046;9.140;2022-07-01T07:39:28;17.20;54.10
32594;DHT22;19018;49.046;9.140;2022-07-01T07:41:54;17.20;54.10
32594;DHT22;19018;49.046;9.140;2022-07-01T07:44:19;17.20;54.10
32594;DHT22;19018;49.046;9.140;2022-07-01T07:46:45;17.20;54.10
32594;DHT22;19018;49.046;9.140;2022-07-01T07:49:10;17.20;54.10
32594;DHT22;19018;49.046;9.140;2022-07-01T07:51:36;17.20;54.20
32594;DHT22;19018;49.046;9.140;2022-07-01T07:54:02;17.20;54.20
32594;DHT22;19018;49.046;9.140;2022-07-01T07:56:28;17.20;54.20
32594;DHT22;19018;49.046;9.140;2022-07-01T07:58:54;17.20;54.20
32594;DHT22;19018;49.046;9.140;2022-07-01T08:01:20;17.30;54.30
32594;DHT22;19018;49.046;9.140;2022-07-01T08:03:45;17.30;54.30
32594;DHT22;19018;49.046;9.140;2022-07-01T08:06:11;17.30;54.30
32594;DHT22;19018;49.046;9.140;2022-07-01T08:08:37;17.30;54.30
32594;DHT22;19018;49.046;9.140;2022-07-01T08:11:03;17.30;54.30
32594;DHT22;19018;49.046;9.140;2022-07-01T08:13:29;17.30;54.40
32594;DHT22;19018;49.046;9.140;2022-07-01T08:15:55;17.30;54.40
32594;DHT22;19018;49.046;9.140;2022-07-01T08:18:20;17.40;54.50
32594;DHT22;19018;49.046;9.140;2022-07-01T08:20:46;17.40;54.50
32594;DHT22;19018;49.046;9.140;2022-07-01T08:23:12;17.40;54.50
32594;DHT22;19018;49.046;9.140;2022-07-01T08:25:38;17.40;54.50
32594;DHT22;19018;49.046;9.140;2022-07-01T08:28:03;17.40;54.50
32594;DHT22;19018;49.046;9.140;2022-07-01T08:30:29;17.40;54.50
32594;DHT22;19018;49.046;9.140;2022-07-01T08:32:55;17.40;54.50
32594;DHT22;19018;49.046;9.140;2022-07-01T08:35:20;17.50;54.50
32594;DHT22;19018;49.046;9.140;2022-07-01T08:37:46;17.50;54.50
32594;DHT22;19018;49.046;9.140;2022-07-01T08:40:11;17.50;54.50
32594;DHT22;19018;49.046;9.140;2022-07-01T08:42:37;17.50;54.50
32594;DHT22;19018;49.046;9.140;2022-07-01T08:45:03;17.50;54.50
32594;DHT22;19018;49.046;9.140;2022-07-01T08:47:28;17.50;54.50
32594;DHT22;19018;49.046;9.140;2022-07-01T08:49:54;17.50;54.50
32594;DHT22;19018;49.046;9.140;2022-07-01T08:52:19;17.50;54.50
32594;DHT22;19018;49.046;9.140;2022-07-01T08:54:45;17.50;54.60
32594;DHT22;19018;49.046;9.140;2022-07-01T08:57:11;17.50;54.60
32594;DHT22;19018;49.046;9.140;2022-07-01T08:59:36;17.50;54.60
32594;DHT22;19018;49.046;9.140;2022-07-01T09:02:03;17.60;54.70
32594;DHT22;19018;49.046;9.140;2022-07-01T09:04:30;17.60;54.70
32594;DHT22;19018;49.046;9.140;2022-07-01T09:07:06;17.60;54.70
32594;DHT22;19018;49.046;9.140;2022-07-01T09:09:35;17.60;54.60
32594;DHT22;19018;49.046;9.140;2022-07-01T09:12:01;17.60;54.70
32594;DHT22;19018;49.046;9.140;2022-07-01T09:14:28;17.60;54.70
32594;DHT22;19018;49.046;9.140;2022-07-01T09:16:58;17.60;54.70
32594;DHT22;19018;49.046;9.140;2022-07-01T09:19:24;17.60;54.70
32594;DHT22;19018;49.046;9.140;2022-07-01T09:21:51;17.70;54.80
32594;DHT22;19018;49.046;9.140;2022-07-01T09:26:55;17.70;54.80
32594;DHT22;19018;49.046;9.140;2022-07-01T09:29:25;17.70;54.80
32594;DHT22;19018;49.046;9.140;2022-07-01T09:31:50;17.70;54.80
32594;DHT22;19018;49.046;9.140;2022-07-01T09:34:16;17.70;54.80
32594;DHT22;19018;49.046;9.140;2022-07-01T09:36:46;17.70;54.80
32594;DHT22;19018;49.046;9.140;2022-07-01T09:39:16;17.70;54.80
32594;DHT22;19018;49.046;9.140;2022-07-01T09:41:42;17.70;54.70
32594;DHT22;19018;49.046;9.140;2022-07-01T09:44:08;17.70;54.80
32594;DHT22;19018;49.046;9.140;2022-07-01T09:46:34;17.70;54.70
32594;DHT22;19018;49.046;9.140;2022-07-01T09:49:00;17.70;54.70
32594;DHT22;19018;49.046;9.140;2022-07-01T09:51:26;17.70;54.70
32594;DHT22;19018;49.046;9.140;2022-07-01T09:53:51;17.70;54.80
32594;DHT22;19018;49.046;9.140;2022-07-01T09:56:18;17.70;54.80
32594;DHT22;19018;49.046;9.140;2022-07-01T09:58:44;17.70;54.70
32594;DHT22;19018;49.046;9.140;2022-07-01T10:01:09;17.70;54.80
32594;DHT22;19018;49.046;9.140;2022-07-01T10:03:36;17.80;54.80
32594;DHT22;19018;49.046;9.140;2022-07-01T10:13:39;17.80;54.90
32594;DHT22;19018;49.046;9.140;2022-07-01T10:16:07;17.80;54.90
32594;DHT22;19018;49.046;9.140;2022-07-01T10:18:33;17.80;54.80
32594;DHT22;19018;49.046;9.140;2022-07-01T10:20:59;17.80;54.80
32594;DHT22;19018;49.046;9.140;2022-07-01T10:23:39;17.80;54.80
32594;DHT22;19018;49.046;9.140;2022-07-01T10:26:05;17.80;54.80
32594;DHT22;19018;49.046;9.140;2022-07-01T10:31:09;17.80;55.00
32594;DHT22;19018;49.046;9.140;2022-07-01T10:33:47;17.80;55.00
32594;DHT22;19018;49.046;9.140;2022-07-01T10:41:25;17.90;55.30
32594;DHT22;19018;49.046;9.140;2022-07-01T10:43:51;17.90;55.30
32594;DHT22;19018;49.046;9.140;2022-07-01T10:48:44;18.10;55.90
32594;DHT22;19018;49.046;9.140;2022-07-01T10:51:13;18.10;56.90
32594;DHT22;19018;49.046;9.140;2022-07-01T10:53:46;18.10;56.10
32594;DHT22;19018;49.046;9.140;2022-07-01T10:56:16;18.20;56.10
32594;DHT22;19018;49.046;9.140;2022-07-01T10:58:42;18.30;56.20
32594;DHT22;19018;49.046;9.140;2022-07-01T11:01:08;18.40;56.20
32594;DHT22;19018;49.046;9.140;2022-07-01T11:03:34;18.40;56.20
32594;DHT22;19018;49.046;9.140;2022-07-01T11:06:00;18.50;56.40
32594;DHT22;19018;49.046;9.140;2022-07-01T11:08:26;18.60;56.40
32594;DHT22;19018;49.046;9.140;2022-07-01T11:10:54;18.70;56.40
32594;DHT22;19018;49.046;9.140;2022-07-01T11:13:20;18.70;56.40
32594;DHT22;19018;49.046;9.140;2022-07-01T11:15:46;18.80;56.60
32594;DHT22;19018;49.046;9.140;2022-07-01T11:18:13;18.90;56.60
32594;DHT22;19018;49.046;9.140;2022-07-01T11:20:39;19.00;56.60
32594;DHT22;19018;49.046;9.140;2022-07-01T11:23:04;19.00;56.60
32594;DHT22;19018;49.046;9.140;2022-07-01T11:25:30;19.10;56.60
32594;DHT22;19018;49.046;9.140;2022-07-01T11:27:56;19.10;56.60
32594;DHT22;19018;49.046;9.140;2022-07-01T11:30:21;19.30;56.70
32594;DHT22;19018;49.046;9.140;2022-07-01T11:32:49;19.30;56.70
32594;DHT22;19018;49.046;9.140;2022-07-01T11:35:15;19.40;56.60
32594;DHT22;19018;49.046;9.140;2022-07-01T11:40:50;19.50;56.50
32594;DHT22;19018;49.046;9.140;2022-07-01T11:43:23;19.50;56.50
32594;DHT22;19018;49.046;9.140;2022-07-01T11:48:30;19.70;56.40
32594;DHT22;19018;49.046;9.140;2022-07-01T11:50:57;19.70;56.40
32594;DHT22;19018;49.046;9.140;2022-07-01T11:53:23;19.70;56.40
32594;DHT22;19018;49.046;9.140;2022-07-01T11:55:49;19.80;56.40
32594;DHT22;19018;49.046;9.140;2022-07-01T11:58:14;19.80;56.40
32594;DHT22;19018;49.046;9.140;2022-07-01T12:00:40;19.90;56.40
32594;DHT22;19018;49.046;9.140;2022-07-01T12:03:05;19.90;56.40
32594;DHT22;19018;49.046;9.140;2022-07-01T12:05:32;19.90;56.50
32594;DHT22;19018;49.046;9.140;2022-07-01T12:10:26;20.10;56.70
32594;DHT22;19018;49.046;9.140;2022-07-01T12:12:51;20.10;57.00
32594;DHT22;19018;49.046;9.140;2022-07-01T12:15:17;20.20;56.80
32594;DHT22;19018;49.046;9.140;2022-07-01T12:17:45;20.30;57.10
32594;DHT22;19018;49.046;9.140;2022-07-01T12:20:10;20.30;57.10
32594;DHT22;19018;49.046;9.140;2022-07-01T12:22:36;20.40;57.10
32594;DHT22;19018;49.046;9.140;2022-07-01T12:25:08;20.50;56.90
32594;DHT22;19018;49.046;9.140;2022-07-01T12:27:34;20.50;56.80
32594;DHT22;19018;49.046;9.140;2022-07-01T12:30:01;20.50;56.80
32594;DHT22;19018;49.046;9.140;2022-07-01T12:32:27;20.60;56.80
32594;DHT22;19018;49.046;9.140;2022-07-01T12:37:25;20.70;56.90
32594;DHT22;19018;49.046;9.140;2022-07-01T12:39:53;20.80;57.30
32594;DHT22;19018;49.046;9.140;2022-07-01T12:50:11;21.00;56.80
32594;DHT22;19018;49.046;9.140;2022-07-01T12:52:38;21.10;57.00
32594;DHT22;19018;49.046;9.140;2022-07-01T12:55:17;21.10;57.10
32594;DHT22;19018;49.046;9.140;2022-07-01T12:57:45;21.20;57.50
32594;DHT22;19018;49.046;9.140;2022-07-01T13:00:11;21.30;57.10
32594;DHT22;19018;49.046;9.140;2022-07-01T13:02:37;21.30;57.20
32594;DHT22;19018;49.046;9.140;2022-07-01T13:05:02;21.30;57.10
32594;DHT22;19018;49.046;9.140;2022-07-01T13:07:28;21.40;57.00
32594;DHT22;19018;49.046;9.140;2022-07-01T13:09:53;21.50;57.60
32594;DHT22;19018;49.046;9.140;2022-07-01T13:12:19;21.60;57.00
32594;DHT22;19018;49.046;9.140;2022-07-01T13:14:45;21.60;57.00
32594;DHT22;19018;49.046;9.140;2022-07-01T13:17:10;21.70;57.00
32594;DHT22;19018;49.046;9.140;2022-07-01T13:19:36;21.70;56.90
32594;DHT22;19018;49.046;9.140;2022-07-01T13:22:02;21.70;57.00
32594;DHT22;19018;49.046;9.140;2022-07-01T13:24:27;21.80;56.90
32594;DHT22;19018;49.046;9.140;2022-07-01T13:26:53;21.80;57.10
32594;DHT22;19018;49.046;9.140;2022-07-01T13:29:19;21.90;57.10
32594;DHT22;19018;49.046;9.140;2022-07-01T13:31:44;21.90;57.50
32594;DHT22;19018;49.046;9.140;2022-07-01T13:34:10;21.90;56.90
32594;DHT22;19018;49.046;9.140;2022-07-01T13:36:35;21.90;57.40
32594;DHT22;19018;49.046;9.140;2022-07-01T13:39:01;22.00;56.80
32594;DHT22;19018;49.046;9.140;2022-07-01T13:41:26;22.00;56.70
32594;DHT22;19018;49.046;9.140;2022-07-01T13:43:52;22.00;56.70
32594;DHT22;19018;49.046;9.140;2022-07-01T13:46:18;22.00;56.70
32594;DHT22;19018;49.046;9.140;2022-07-01T13:48:43;22.10;56.70
32594;DHT22;19018;49.046;9.140;2022-07-01T13:51:09;22.10;57.10
32594;DHT22;19018;49.046;9.140;2022-07-01T13:53:34;22.20;56.90
32594;DHT22;19018;49.046;9.140;2022-07-01T13:56:00;22.20;56.90
32594;DHT22;19018;49.046;9.140;2022-07-01T13:58:25;22.30;57.00
32594;DHT22;19018;49.046;9.140;2022-07-01T14:00:51;22.30;56.90
32594;DHT22;19018;49.046;9.140;2022-07-01T14:03:17;22.30;56.90
32594;DHT22;19018;49.046;9.140;2022-07-01T14:05:42;22.40;56.90
32594;DHT22;19018;49.046;9.140;2022-07-01T14:08:08;22.40;56.90
32594;DHT22;19018;49.046;9.140;2022-07-01T14:10:33;22.50;56.90
32594;DHT22;19018;49.046;9.140;2022-07-01T14:13:01;22.50;56.90
32594;DHT22;19018;49.046;9.140;2022-07-01T14:15:27;22.60;56.90
32594;DHT22;19018;49.046;9.140;2022-07-01T14:17:53;22.60;56.90
32594;DHT22;19018;49.046;9.140;2022-07-01T14:20:18;22.70;56.80
32594;DHT22;19018;49.046;9.140;2022-07-01T14:22:44;22.70;56.80
32594;DHT22;19018;49.046;9.140;2022-07-01T14:25:09;22.80;56.80
32594;DHT22;19018;49.046;9.140;2022-07-01T14:27:35;22.80;56.70
32594;DHT22;19018;49.046;9.140;2022-07-01T14:30:01;22.80;56.60
32594;DHT22;19018;49.046;9.140;2022-07-01T14:32:26;22.90;56.60
32594;DHT22;19018;49.046;9.140;2022-07-01T14:34:53;22.90;56.40
32594;DHT22;19018;49.046;9.140;2022-07-01T14:37:19;22.80;56.30
32594;DHT22;19018;49.046;9.140;2022-07-01T14:39:45;22.90;56.30
32594;DHT22;19018;49.046;9.140;2022-07-01T14:42:10;22.90;56.30
32594;DHT22;19018;49.046;9.140;2022-07-01T14:44:36;22.90;56.30
32594;DHT22;19018;49.046;9.140;2022-07-01T14:47:02;22.90;56.20
32594;DHT22;19018;49.046;9.140;2022-07-01T14:49:27;22.90;56.10
32594;DHT22;19018;49.046;9.140;2022-07-01T14:51:53;22.80;56.10
32594;DHT22;19018;49.046;9.140;2022-07-01T14:54:18;22.80;56.00
32594;DHT22;19018;49.046;9.140;2022-07-01T14:56:44;22.80;56.00
32594;DHT22;19018;49.046;9.140;2022-07-01T14:59:10;22.80;56.00
32594;DHT22;19018;49.046;9.140;2022-07-01T15:01:35;22.80;56.00
32594;DHT22;19018;49.046;9.140;2022-07-01T15:04:01;22.80;56.00
32594;DHT22;19018;49.046;9.140;2022-07-01T15:06:26;22.80;56.00
32594;DHT22;19018;49.046;9.140;2022-07-01T15:08:52;22.80;55.90
32594;DHT22;19018;49.046;9.140;2022-07-01T15:11:18;22.90;56.00
32594;DHT22;19018;49.046;9.140;2022-07-01T15:13:43;22.80;56.00
32594;DHT22;19018;49.046;9.140;2022-07-01T15:16:09;22.80;55.80
32594;DHT22;19018;49.046;9.140;2022-07-01T15:18:34;22.80;55.80
32594;DHT22;19018;49.046;9.140;2022-07-01T15:21:00;22.80;55.80
32594;DHT22;19018;49.046;9.140;2022-07-01T15:23:26;22.80;55.70
32594;DHT22;19018;49.046;9.140;2022-07-01T15:25:52;22.80;55.80
32594;DHT22;19018;49.046;9.140;2022-07-01T15:28:18;22.80;55.70
32594;DHT22;19018;49.046;9.140;2022-07-01T15:30:43;22.80;55.70
32594;DHT22;19018;49.046;9.140;2022-07-01T15:33:11;22.70;55.50
32594;DHT22;19018;49.046;9.140;2022-07-01T15:35:37;22.70;55.60
32594;DHT22;19018;49.046;9.140;2022-07-01T15:38:03;22.70;55.70
32594;DHT22;19018;49.046;9.140;2022-07-01T15:40:28;22.70;55.70
32594;DHT22;19018;49.046;9.140;2022-07-01T15:42:55;22.70;55.70
32594;DHT22;19018;49.046;9.140;2022-07-01T15:45:21;22.70;55.80
32594;DHT22;19018;49.046;9.140;2022-07-01T15:47:46;22.70;55.70
32594;DHT22;19018;49.046;9.140;2022-07-01T15:50:31;22.80;55.80
32594;DHT22;19018;49.046;9.140;2022-07-01T15:52:56;22.70;55.80
32594;DHT22;19018;49.046;9.140;2022-07-01T15:55:22;22.70;55.80
32594;DHT22;19018;49.046;9.140;2022-07-01T16:00:15;22.80;55.80
32594;DHT22;19018;49.046;9.140;2022-07-01T16:02:41;22.70;55.70
32594;DHT22;19018;49.046;9.140;2022-07-01T16:05:08;22.80;55.80
32594;DHT22;19018;49.046;9.140;2022-07-01T16:07:38;22.70;55.70
32594;DHT22;19018;49.046;9.140;2022-07-01T16:10:08;22.70;55.70
32594;DHT22;19018;49.046;9.140;2022-07-01T16:12:34;22.70;55.70
32594;DHT22;19018;49.046;9.140;2022-07-01T16:15:00;22.80;55.80
32594;DHT22;19018;49.046;9.140;2022-07-01T16:17:29;22.80;55.80
32594;DHT22;19018;49.046;9.140;2022-07-01T16:19:58;22.70;55.70
32594;DHT22;19018;49.046;9.140;2022-07-01T16:22:25;22.70;55.60
32594;DHT22;19018;49.046;9.140;2022-07-01T16:24:52;22.70;55.60
32594;DHT22;19018;49.046;9.140;2022-07-01T16:27:18;22.70;55.60
32594;DHT22;19018;49.046;9.140;2022-07-01T16:29:45;22.70;55.60
32594;DHT22;19018;49.046;9.140;2022-07-01T16:32:11;22.70;55.70
32594;DHT22;19018;49.046;9.140;2022-07-01T16:37:03;22.70;55.70
32594;DHT22;19018;49.046;9.140;2022-07-01T16:39:31;22.70;55.70
32594;DHT22;19018;49.046;9.140;2022-07-01T16:42:02;22.60;55.60
32594;DHT22;19018;49.046;9.140;2022-07-01T16:47:03;22.60;55.60
32594;DHT22;19018;49.046;9.140;2022-07-01T16:49:30;22.60;55.60
32594;DHT22;19018;49.046;9.140;2022-07-01T16:51:56;22.60;55.60
32594;DHT22;19018;49.046;9.140;2022-07-01T16:54:26;22.60;55.60